Time;durP1;ratioP1;P1;durP2;ratioP2;P2;SDS_P1;SDS_P2;PMS_P1;PMS_P2;Temp;Humidity;BMP_temperature;BMP_pressure;BME280_temperature;BME280_humidity;BME280_pressure;Samples;Min_cycle;Max_cycle;Signal;HPM_P1;HPM_P2
2021/06/21 00:04:05;;;;;;;6.23;5.00;;;;;;;15.79;100.00;100976.77;1838157;77;85491;-79
2021/06/21 00:09:32;;;;;;;7.50;5.17;;;;;;;15.76;100.00;100968.44;1945214;73;39859;-72
2021/06/21 00:14:56;;;;;;;7.37;5.00;;;;;;;15.73;100.00;100976.09;1869097;76;86258;-78
2021/06/21 00:20:22;;;;;;;6.83;4.00;;;;;;;15.67;100.00;100966.70;1924772;72;39806;-74
2021/06/21 00:25:48;;;;;;;3.20;2.90;;;;;;;15.59;100.00;100968.30;1876848;75;86421;-78
2021/06/21 00:31:13;;;;;;;3.67;3.10;;;;;;;15.51;100.00;100959.25;1939079;72;39773;-78
2021/06/21 00:36:38;;;;;;;5.20;3.23;;;;;;;15.45;100.00;100968.30;1943780;73;39619;-81
2021/06/21 00:42:04;;;;;;;3.30;2.90;;;;;;;15.48;100.00;100977.48;1784790;79;86390;-78
2021/06/21 00:47:28;;;;;;;4.50;3.80;;;;;;;15.45;100.00;100971.09;1917098;73;39471;-81
2021/06/21 00:52:54;;;;;;;3.43;3.10;;;;;;;15.41;100.00;100976.23;1883127;75;86355;-81
2021/06/21 00:58:22;;;;;;;5.13;3.60;;;;;;;15.41;100.00;100965.87;1946548;73;39546;-79
2021/06/21 01:03:53;;;;;;;3.80;3.50;;;;;;;15.50;100.00;100965.98;1902716;74;86993;-73
2021/06/21 01:09:17;;;;;;;3.33;3.03;;;;;;;15.44;100.00;100969.46;1938073;72;39503;-72
2021/06/21 01:14:50;;;;;;;3.40;3.10;;;;;;;15.38;100.00;100974.08;1877033;75;85891;-81
2021/06/21 01:20:51;;;;;;;6.17;4.20;;;;;;;15.35;100.00;100970.52;1920797;73;39534;-77
2021/06/21 01:26:43;;;;;;;6.07;3.70;;;;;;;15.33;100.00;100961.59;1943271;73;39540;-81
2021/06/21 01:32:34;;;;;;;4.73;3.70;;;;;;;15.29;100.00;100966.98;1948065;73;39528;-81
2021/06/21 01:38:01;;;;;;;4.00;3.67;;;;;;;15.28;100.00;100957.50;1832630;78;86796;-72
2021/06/21 01:43:30;;;;;;;10.53;4.50;;;;;;;15.24;100.00;100945.28;1918518;73;39623;-77
2021/06/21 01:48:59;;;;;;;5.10;3.80;;;;;;;15.26;100.00;100941.61;1837336;77;85736;-78
2021/06/21 01:54:28;;;;;;;4.77;3.93;;;;;;;15.12;100.00;100948.63;1954899;73;39622;-78
2021/06/21 01:59:54;;;;;;;4.80;3.73;;;;;;;15.20;100.00;100939.48;1882363;75;86436;-78
2021/06/21 02:05:20;;;;;;;4.67;3.80;;;;;;;15.16;100.00;100942.66;1920755;73;39624;-77
2021/06/21 02:10:45;;;;;;;6.93;3.27;;;;;;;15.00;100.00;100951.97;1876797;75;86259;-78
2021/06/21 02:16:11;;;;;;;4.03;3.63;;;;;;;15.10;100.00;100951.48;1838386;77;85542;-79
2021/06/21 02:21:38;;;;;;;6.80;3.97;;;;;;;14.96;100.00;100948.70;1927612;72;39606;-74
2021/06/21 02:27:04;;;;;;;7.13;3.80;;;;;;;14.94;100.00;100956.00;1898891;75;85605;-80
2021/06/21 02:32:30;;;;;;;4.43;3.73;;;;;;;15.01;100.00;100954.20;1914762;73;39638;-78
2021/06/21 02:37:55;;;;;;;7.17;4.03;;;;;;;14.90;100.00;100963.35;1837413;77;86159;-81
2021/06/21 02:43:22;;;;;;;6.03;3.80;;;;;;;14.98;100.00;100958.99;1919342;73;39581;-78
2021/06/21 02:48:46;;;;;;;5.73;4.30;;;;;;;14.81;100.00;100960.19;1877022;75;86495;-79
2021/06/21 02:51:19;;;;;;;6.77;4.17;;;;;;;14.77;100.00;100974.53;1852650;76;932737;-79
2021/06/21 02:56:47;;;;;;;4.70;3.93;;;;;;;14.81;100.00;100976.41;1904499;75;86504;-80
2021/06/21 02:59:20;;;;;;;7.37;3.73;;;;;;;14.79;100.00;100978.70;1843394;77;932758;-81
2021/06/21 03:04:49;;;;;;;4.93;3.20;;;;;;;14.81;100.00;100969.41;1877650;74;86499;-72
2021/06/21 03:10:17;;;;;;;3.50;3.13;;;;;;;14.74;100.00;100962.58;1904725;73;39652;-79
2021/06/21 03:15:45;;;;;;;3.73;3.10;;;;;;;14.68;100.00;100966.61;1904493;75;86806;-81
2021/06/21 03:21:11;;;;;;;4.60;2.80;;;;;;;14.67;100.00;100979.78;1838526;77;86379;-72
2021/06/21 03:26:35;;;;;;;3.60;2.80;;;;;;;14.66;100.00;100975.89;1944148;73;39719;-72
2021/06/21 03:32:14;;;;;;;3.47;3.17;;;;;;;14.59;100.00;100992.48;1865311;74;86270;-78
2021/06/21 03:37:39;;;;;;;4.43;2.83;;;;;;;14.56;100.00;100990.32;1943582;73;39524;-73
2021/06/21 03:43:05;;;;;;;5.53;3.20;;;;;;;14.49;100.00;100990.47;1838145;77;86433;-80
2021/06/21 03:48:32;;;;;;;4.70;2.90;;;;;;;14.47;100.00;100993.56;1934421;72;39493;-72
2021/06/21 03:53:56;;;;;;;3.87;3.13;;;;;;;14.43;100.00;100999.51;1882577;75;86580;-81
2021/06/21 03:59:21;;;;;;;5.47;3.23;;;;;;;14.31;100.00;100997.74;1920047;73;39820;-80
2021/06/21 04:04:49;;;;;;;5.90;3.50;;;;;;;14.42;100.00;100995.61;1877145;75;86420;-72
2021/06/21 04:10:18;;;;;;;6.30;3.53;;;;;;;14.31;100.00;101003.90;1948317;72;39615;-78
2021/06/21 04:15:43;;;;;;;4.10;3.07;;;;;;;14.35;100.00;101007.20;1904562;75;86323;-81
2021/06/21 04:21:08;;;;;;;3.27;2.60;;;;;;;14.32;100.00;101011.15;1833486;78;86672;-73
2021/06/21 04:26:54;;;;;;;4.37;3.23;;;;;;;14.31;100.00;101024.29;1876198;73;86445;-78
2021/06/21 04:32:19;;;;;;;5.73;3.27;;;;;;;14.39;100.00;101023.61;1947201;72;39681;-78
2021/06/21 04:37:43;;;;;;;4.53;3.20;;;;;;;14.38;100.00;101025.31;1904618;75;86167;-71
2021/06/21 04:43:09;;;;;;;3.63;2.50;;;;;;;14.36;100.00;101017.81;1838487;77;86626;-81
2021/06/21 04:48:35;;;;;;;5.57;3.37;;;;;;;14.33;100.00;101007.23;1944007;73;39533;-78
2021/06/21 04:54:01;;;;;;;5.67;2.77;;;;;;;14.19;100.00;101018.36;1763925;79;86340;-76
2021/06/21 04:59:25;;;;;;;5.37;3.07;;;;;;;14.27;100.00;101009.84;1946284;72;39648;-81
2021/06/21 05:04:49;;;;;;;4.13;2.90;;;;;;;14.25;100.00;101019.11;1877223;74;86369;-81
2021/06/21 05:10:15;;;;;;;6.50;3.50;;;;;;;14.35;100.00;101020.31;1948616;73;39472;-78
2021/06/21 05:15:40;;;;;;;4.90;3.73;;;;;;;14.27;100.00;101029.39;1942985;73;39588;-78
2021/06/21 05:21:06;;;;;;;6.00;3.43;;;;;;;14.02;100.00;100993.78;1868230;76;86155;-78
2021/06/21 05:26:31;;;;;;;5.80;3.30;;;;;;;14.22;100.00;101032.27;1945107;73;40099;-72
2021/06/21 05:31:55;;;;;;;4.60;3.20;;;;;;;14.22;100.00;101030.31;1837182;77;86857;-80
2021/06/21 05:37:19;;;;;;;3.97;3.63;;;;;;;14.22;100.00;101040.09;1936097;72;39443;-76
2021/06/21 05:42:47;;;;;;;4.20;3.17;;;;;;;14.21;100.00;101041.78;1876951;75;86537;-70
2021/06/21 05:48:12;;;;;;;3.90;3.60;;;;;;;14.09;100.00;101050.08;1926110;73;39648;-72
2021/06/21 05:56:25;;;;;;;6.30;3.40;;;;;;;14.11;100.00;101060.39;1999904;69;39656;-81
2021/06/21 05:58:55;;;;;;;5.80;3.57;;;;;;;14.20;100.00;101068.91;1872783;74;934702;-73
2021/06/21 06:01:25;;;;;;;5.47;3.67;;;;;;;14.08;100.00;101074.95;1882835;74;936743;-81
2021/06/21 06:03:55;;;;;;;4.30;3.40;;;;;;;14.07;100.00;101076.66;1895287;74;936678;-81
2021/06/21 06:06:25;;;;;;;6.57;3.60;;;;;;;13.97;100.00;101073.45;1850475;76;936470;-72
2021/06/21 06:08:55;;;;;;;6.43;4.00;;;;;;;14.06;100.00;101066.62;1861205;76;936811;-72
2021/06/21 06:11:25;;;;;;;5.40;3.43;;;;;;;14.16;100.00;101068.42;1882817;74;935951;-81
2021/06/21 06:13:55;;;;;;;5.43;3.53;;;;;;;14.00;100.00;101067.81;1895356;74;936672;-73
2021/06/21 06:16:25;;;;;;;6.13;3.57;;;;;;;13.83;100.00;101050.20;1882826;74;935279;-72
2021/06/21 06:18:55;;;;;;;7.20;3.97;;;;;;;14.12;100.00;101074.60;1895226;74;935524;-81
2021/06/21 06:21:29;;;;;;;5.83;3.80;;;;;;;14.05;100.00;101076.12;1883027;74;936599;-72
2021/06/21 06:23:58;;;;;;;6.35;3.92;;;;;;;14.12;100.00;101073.77;1895158;74;936613;-71
2021/06/21 06:26:28;;;;;;;4.77;3.77;;;;;;;14.03;100.00;101073.63;1882984;74;936725;-80
2021/06/21 06:28:58;;;;;;;6.37;3.47;;;;;;;14.17;100.00;101076.48;1895298;74;936919;-79
2021/06/21 06:31:28;;;;;;;6.17;3.92;;;;;;;14.22;100.00;101075.58;1863030;74;936726;-72
2021/06/21 06:33:59;;;;;;;6.47;3.20;;;;;;;14.17;100.00;101079.28;1898775;74;936685;-79
2021/06/21 06:36:29;;;;;;;6.30;3.63;;;;;;;14.23;100.00;101077.25;1867753;75;941994;-78
2021/06/21 06:38:59;;;;;;;6.30;3.63;;;;;;;14.28;100.00;101078.56;1876549;74;936606;-71
2021/06/21 06:41:29;;;;;;;5.37;3.52;;;;;;;14.31;100.00;101078.78;1864295;74;936696;-74
2021/06/21 06:44:00;;;;;;;5.03;3.43;;;;;;;14.38;100.00;101075.05;1884083;74;936841;-79
2021/06/21 06:49:25;;;;;;;6.20;3.40;;;;;;;14.24;100.00;101081.70;1918283;73;39683;-78
2021/06/21 06:56:58;;;;;;;6.53;3.93;;;;;;;14.44;100.00;101073.01;1882258;75;86309;-72
2021/06/21 07:00:17;;;;;;;4.20;3.73;;;;;;;14.29;100.00;101090.02;1948722;73;39449;-70
2021/06/21 07:05:44;;;;;;;6.07;3.70;;;;;;;14.26;100.00;101091.99;1942851;73;39627;-80
2021/06/21 07:11:08;;;;;;;6.13;4.20;;;;;;;14.30;100.00;101090.25;1838440;77;85637;-80
2021/06/21 07:16:32;;;;;;;8.47;4.43;;;;;;;14.35;100.00;101098.55;1914918;73;39582;-72
2021/06/21 07:22:02;;;;;;;6.50;4.13;;;;;;;14.43;100.00;101095.93;1760588;80;86316;-78
2021/06/21 07:27:29;;;;;;;5.37;3.87;;;;;;;14.44;100.00;101102.35;1943726;73;39521;-72
2021/06/21 07:32:54;;;;;;;6.07;3.50;;;;;;;14.56;100.00;101105.50;1878001;75;85350;-71
2021/06/21 07:38:19;;;;;;;6.90;4.03;;;;;;;14.33;100.00;101109.23;1936855;72;39697;-78
2021/06/21 07:43:44;;;;;;;5.97;3.50;;;;;;;14.43;100.00;101119.69;1845618;77;86457;-73
2021/06/21 07:49:09;;;;;;;7.07;4.10;;;;;;;14.39;100.00;101121.44;1881751;76;85589;-74
2021/06/21 07:54:33;;;;;;;6.00;4.00;;;;;;;14.23;100.00;101137.31;1896594;73;39690;-75
2021/06/21 07:59:58;;;;;;;9.00;4.87;;;;;;;14.07;100.00;101138.95;1882983;75;86591;-76
2021/06/21 08:05:24;;;;;;;6.27;4.20;;;;;;;14.13;100.00;101140.52;1919166;73;39557;-75
2021/06/21 08:10:49;;;;;;;9.67;4.37;;;;;;;14.12;100.00;101149.19;1877321;75;86445;-78
2021/06/21 08:16:13;;;;;;;7.70;4.57;;;;;;;14.20;100.00;101155.53;1924709;73;39710;-75
2021/06/21 08:21:41;;;;;;;8.57;4.97;;;;;;;14.32;100.00;101155.06;1943364;73;39376;-75
2021/06/21 08:27:06;;;;;;;9.53;4.30;;;;;;;14.32;100.00;101166.24;1833129;78;86695;-77
2021/06/21 08:32:32;;;;;;;7.03;4.23;;;;;;;14.22;100.00;101170.57;1915218;73;39638;-76
2021/06/21 08:37:58;;;;;;;6.40;4.50;;;;;;;14.37;100.00;101173.19;1868363;75;86581;-79
2021/06/21 08:43:23;;;;;;;6.10;4.80;;;;;;;14.42;100.00;101177.28;1946717;73;39811;-77
2021/06/21 08:48:49;;;;;;;8.03;4.80;;;;;;;14.45;100.00;101185.91;1877575;75;85480;-76
2021/06/21 08:54:13;;;;;;;6.50;4.47;;;;;;;14.42;100.00;101189.29;1939154;72;39591;-77
2021/06/21 08:59:42;;;;;;;8.00;5.40;;;;;;;14.46;100.00;101191.74;1911713;73;39525;-79
2021/06/21 09:05:12;;;;;;;8.40;5.13;;;;;;;14.41;100.00;101200.80;1868315;76;86402;-77
2021/06/21 09:10:39;;;;;;;10.53;5.90;;;;;;;14.59;100.00;101202.73;1931785;72;39702;-79
2021/06/21 09:16:07;;;;;;;8.10;5.30;;;;;;;14.55;100.00;101201.67;1784895;79;86318;-81
2021/06/21 09:21:37;;;;;;;10.70;5.50;;;;;;;14.72;100.00;101207.55;1918304;73;39657;-79
2021/06/21 09:24:14;;;;;;;9.20;5.93;;;;;;;14.62;100.00;101211.92;1892545;75;935075;-77
2021/06/21 09:29:41;;;;;;;10.87;6.10;;;;;;;14.58;100.00;101211.70;1943371;73;39582;-82
2021/06/21 09:35:08;;;;;;;11.00;6.20;;;;;;;14.47;100.00;101218.57;1833241;78;86343;-81
2021/06/21 09:40:43;;;;;;;10.87;5.57;;;;;;;14.52;100.00;101218.50;1911261;73;39553;-78
2021/06/21 09:46:21;;;;;;;9.10;5.73;;;;;;;14.50;100.00;101229.14;1946486;73;39711;-78
2021/06/21 09:51:46;;;;;;;9.40;5.90;;;;;;;14.55;100.00;101231.86;1891962;74;85787;-78
2021/06/21 09:57:15;;;;;;;8.93;5.53;;;;;;;14.44;100.00;101233.72;1949312;73;39657;-78
2021/06/21 10:02:43;;;;;;;8.47;6.33;;;;;;;14.49;100.00;101242.88;1845773;77;86775;-78
2021/06/21 10:08:18;;;;;;;9.70;6.10;;;;;;;14.71;100.00;101237.23;1947428;73;39483;-79
2021/06/21 10:13:43;;;;;;;7.33;5.77;;;;;;;14.82;100.00;101242.36;1907730;74;85468;-78
2021/06/21 10:19:09;;;;;;;10.80;6.30;;;;;;;14.65;100.00;101245.42;1868665;75;86519;-79
2021/06/21 10:24:36;;;;;;;9.63;6.13;;;;;;;14.72;100.00;101241.11;1944287;73;39972;-78
2021/06/21 10:30:03;;;;;;;8.40;6.17;;;;;;;14.80;100.00;101251.64;1782295;78;86301;-75
2021/06/21 10:35:32;;;;;;;8.17;6.43;;;;;;;14.92;100.00;101255.36;1916584;73;39509;-75
2021/06/21 10:41:01;;;;;;;11.20;6.80;;;;;;;14.79;100.00;101235.15;1832563;78;86612;-75
2021/06/21 10:46:45;;;;;;;9.00;6.77;;;;;;;14.86;100.00;101255.99;1889992;75;85494;-76
2021/06/21 10:52:59;;;;;;;9.47;6.93;;;;;;;15.32;100.00;101265.01;1901124;73;39493;-75
2021/06/21 10:58:41;;;;;;;7.13;6.33;;;;;;;15.17;100.00;101266.12;1914356;72;39703;-80
2021/06/21 11:04:49;;;;;;;8.53;6.10;;;;;;;15.23;100.00;101271.88;1889139;75;86379;-75
2021/06/21 11:10:34;;;;;;;9.63;6.33;;;;;;;15.28;100.00;101275.16;1969940;71;39766;-78
2021/06/21 11:16:25;;;;;;;7.57;6.40;;;;;;;15.34;100.00;101280.38;1938545;73;39504;-77
2021/06/21 11:22:45;;;;;;;10.87;6.60;;;;;;;15.38;100.00;101291.78;1946471;73;40256;-79
2021/06/21 11:28:37;;;;;;;11.07;6.33;;;;;;;15.31;100.00;101287.16;1936752;73;39607;-77
2021/06/21 11:34:20;;;;;;;9.13;6.40;;;;;;;15.30;100.00;101283.53;1920994;73;39503;-77
2021/06/21 11:39:45;;;;;;;7.37;6.20;;;;;;;15.44;100.00;101288.61;1877020;75;86275;-77
2021/06/21 11:45:14;;;;;;;11.63;6.47;;;;;;;15.20;100.00;101268.86;1950214;72;39678;-78
2021/06/21 11:50:40;;;;;;;10.37;6.13;;;;;;;15.42;100.00;101288.63;1927254;72;39646;-76
2021/06/21 11:56:04;;;;;;;7.73;5.80;;;;;;;15.25;100.00;101289.20;1782008;78;86269;-77
2021/06/21 12:01:29;;;;;;;7.20;6.37;;;;;;;15.20;100.00;101290.69;1916466;73;39503;-77
2021/06/21 12:06:54;;;;;;;7.90;7.10;;;;;;;15.34;100.00;101289.34;1837038;77;86490;-78
2021/06/21 12:12:24;;;;;;;8.80;6.80;;;;;;;15.40;100.00;101299.33;1920940;73;39766;-77
2021/06/21 12:17:49;;;;;;;8.77;6.70;;;;;;;15.41;100.00;101303.19;1892385;74;86793;-78
2021/06/21 12:23:15;;;;;;;8.63;6.27;;;;;;;15.16;100.00;101301.39;1948391;73;39635;-77
2021/06/21 12:28:41;;;;;;;11.70;6.17;;;;;;;15.01;100.00;101251.56;1906221;72;39455;-76
2021/06/21 12:34:05;;;;;;;7.97;6.80;;;;;;;15.27;100.00;101286.95;1833005;78;86127;-76
2021/06/21 12:39:36;;;;;;;8.23;6.33;;;;;;;15.36;100.00;101306.67;1901267;73;39862;-76
2021/06/21 12:45:17;;;;;;;9.73;7.23;;;;;;;15.19;100.00;101315.60;1877086;75;86854;-75
2021/06/21 12:50:51;;;;;;;7.50;6.70;;;;;;;15.28;100.00;101316.58;1881890;75;86476;-75
2021/06/21 12:56:25;;;;;;;10.03;6.30;;;;;;;15.31;100.00;101316.55;1948559;73;39516;-75
2021/06/21 13:01:50;;;;;;;9.43;7.00;;;;;;;15.30;100.00;101317.12;1892263;75;86377;-76
2021/06/21 13:07:15;;;;;;;9.77;6.43;;;;;;;15.45;100.00;101324.41;1948437;73;39560;-76
2021/06/21 13:12:43;;;;;;;8.23;6.30;;;;;;;15.53;100.00;101325.16;1942868;73;39689;-76
2021/06/21 13:18:12;;;;;;;8.90;5.90;;;;;;;15.44;100.00;101325.56;1838405;77;86357;-75
2021/06/21 13:23:51;;;;;;;7.73;5.50;;;;;;;15.69;100.00;101324.31;1876971;75;85990;-74
2021/06/21 13:29:27;;;;;;;6.70;5.63;;;;;;;15.73;100.00;101328.16;1946086;73;39431;-76
2021/06/21 13:34:56;;;;;;;8.17;5.83;;;;;;;15.73;100.00;101331.80;1867295;75;86086;-76
2021/06/21 13:40:24;;;;;;;7.80;6.57;;;;;;;15.67;100.00;101334.97;1934365;73;39529;-76
2021/06/21 13:45:51;;;;;;;9.33;7.20;;;;;;;15.75;100.00;101337.06;1892448;74;86919;-76
2021/06/21 13:51:23;;;;;;;9.57;6.60;;;;;;;15.76;100.00;101332.56;1901578;73;40142;-75
2021/06/21 13:56:46;;;;;;;8.57;6.40;;;;;;;15.78;100.00;101344.88;1876705;75;86402;-76
2021/06/21 14:02:10;;;;;;;8.30;6.60;;;;;;;15.68;100.00;101354.84;1882256;75;86565;-76
2021/06/21 14:07:35;;;;;;;7.50;6.30;;;;;;;15.75;100.00;101349.67;1917398;73;39597;-76
2021/06/21 14:13:01;;;;;;;7.93;6.67;;;;;;;15.71;100.00;101358.42;1886554;75;86409;-76
2021/06/21 14:18:26;;;;;;;10.60;6.40;;;;;;;15.82;100.00;101360.77;1945789;73;39676;-76
2021/06/21 14:23:52;;;;;;;6.33;5.73;;;;;;;15.73;100.00;101359.80;1892958;75;86375;-76
2021/06/21 14:29:16;;;;;;;11.23;6.77;;;;;;;15.94;100.00;101364.45;1948228;73;39465;-76
2021/06/21 14:34:41;;;;;;;9.27;6.73;;;;;;;15.86;100.00;101369.37;1909309;73;39503;-76
2021/06/21 14:40:08;;;;;;;9.60;6.40;;;;;;;15.88;100.00;101369.31;1838152;77;85615;-76
2021/06/21 14:45:33;;;;;;;8.40;6.17;;;;;;;15.84;100.00;101364.06;1900915;73;39559;-76
2021/06/21 14:51:01;;;;;;;8.07;5.77;;;;;;;15.77;100.00;101376.81;1875796;75;86446;-78
2021/06/21 14:56:28;;;;;;;6.23;5.33;;;;;;;15.84;100.00;101370.23;1945669;73;39535;-76
2021/06/21 15:01:52;;;;;;;8.07;6.50;;;;;;;15.84;100.00;101376.67;1836998;77;85731;-76
2021/06/21 15:07:20;;;;;;;8.10;5.90;;;;;;;15.85;100.00;101383.95;1920476;72;39532;-76
2021/06/21 15:12:51;;;;;;;6.43;5.70;;;;;;;15.83;100.00;101393.22;1892377;74;86492;-76
2021/06/21 15:18:17;;;;;;;9.63;5.87;;;;;;;15.89;100.00;101392.00;1922717;73;39694;-76
2021/06/21 15:23:48;;;;;;;8.60;5.60;;;;;;;15.91;100.00;101400.11;1877495;75;86289;-75
2021/06/21 15:29:13;;;;;;;7.07;5.23;;;;;;;15.95;100.00;101396.95;1948888;73;39601;-76
2021/06/21 15:34:42;;;;;;;6.07;5.47;;;;;;;16.04;100.00;101399.30;1928433;72;39593;-75
2021/06/21 15:40:11;;;;;;;7.07;5.37;;;;;;;16.00;100.00;101407.23;1832964;78;86203;-76
2021/06/21 15:45:36;;;;;;;8.43;5.20;;;;;;;15.86;100.00;101407.20;1927504;72;39515;-75
2021/06/21 15:51:03;;;;;;;7.17;5.63;;;;;;;15.80;100.00;101415.41;1850824;75;86565;-76
2021/06/21 15:56:30;;;;;;;6.23;5.00;;;;;;;15.86;100.00;101412.23;1915451;72;39575;-76
2021/06/21 16:01:54;;;;;;;5.20;4.70;;;;;;;15.92;100.00;101420.80;1837050;77;86388;-76
2021/06/21 16:07:18;;;;;;;5.93;4.97;;;;;;;16.02;100.00;101417.55;1921254;73;39760;-76
2021/06/21 16:12:43;;;;;;;5.40;4.60;;;;;;;15.93;100.00;101430.03;1888181;73;39670;-76
2021/06/21 16:18:13;;;;;;;8.43;5.03;;;;;;;16.08;100.00;101434.55;1925922;73;39516;-76
2021/06/21 16:23:38;;;;;;;5.07;4.07;;;;;;;15.89;100.00;101441.59;1912411;73;39675;-76
2021/06/21 16:29:03;;;;;;;8.87;4.03;;;;;;;15.67;100.00;101447.00;1954390;70;86691;-76
2021/06/21 16:34:27;;;;;;;6.70;4.43;;;;;;;15.71;100.00;101453.09;1899194;72;40539;-76
2021/06/21 16:39:51;;;;;;;4.23;3.40;;;;;;;15.76;100.00;101460.58;1836883;77;86846;-76
2021/06/21 16:45:17;;;;;;;4.83;4.07;;;;;;;15.57;100.00;101465.39;1923316;73;39556;-75
2021/06/21 16:50:43;;;;;;;4.83;4.40;;;;;;;15.66;100.00;101466.37;1909395;73;40374;-74
2021/06/21 16:56:08;;;;;;;7.50;4.63;;;;;;;15.70;100.00;101461.82;1868224;77;86540;-76
2021/06/21 17:01:32;;;;;;;8.23;4.73;;;;;;;15.73;100.00;101476.05;1944625;73;39654;-76
2021/06/21 17:06:58;;;;;;;6.73;5.17;;;;;;;15.72;100.00;101483.34;1892817;74;86688;-73
2021/06/21 17:12:23;;;;;;;6.50;5.40;;;;;;;15.76;100.00;101489.43;1918956;73;39603;-73
2021/06/21 17:17:48;;;;;;;8.43;5.70;;;;;;;15.76;100.00;101488.59;1877360;75;86620;-72
2021/06/21 17:23:13;;;;;;;10.17;6.33;;;;;;;15.78;100.00;101494.74;1929668;72;39432;-73
2021/06/21 17:28:38;;;;;;;8.13;6.43;;;;;;;15.81;100.00;101499.72;1916254;73;39632;-73
2021/06/21 17:34:06;;;;;;;9.33;6.20;;;;;;;15.73;100.00;101510.22;1826002;78;86747;-72
2021/06/21 17:39:31;;;;;;;6.37;5.77;;;;;;;15.73;100.00;101512.45;1930586;72;39629;-73
2021/06/21 17:44:57;;;;;;;7.63;6.00;;;;;;;15.79;100.00;101524.39;1814925;78;86721;-72
2021/06/21 17:50:22;;;;;;;7.17;5.93;;;;;;;15.70;100.00;101519.23;1946823;73;39751;-74
2021/06/21 17:55:54;;;;;;;6.20;5.60;;;;;;;15.76;100.00;101515.20;1877200;74;86579;-73
2021/06/21 18:01:18;;;;;;;8.43;6.17;;;;;;;15.71;100.00;101518.08;1947754;73;39764;-75
2021/06/21 18:06:43;;;;;;;7.47;5.77;;;;;;;15.74;100.00;101521.70;1904573;75;86722;-74
2021/06/21 18:12:14;;;;;;;7.67;6.13;;;;;;;15.73;100.00;101513.02;1784843;79;85593;-75
2021/06/21 18:17:38;;;;;;;8.77;5.97;;;;;;;15.64;100.00;101521.27;1916785;73;39511;-75
2021/06/21 18:23:07;;;;;;;8.93;6.10;;;;;;;15.67;100.00;101524.86;1823999;76;86049;-75
2021/06/21 18:28:33;;;;;;;8.20;5.93;;;;;;;15.63;100.00;101537.80;1914757;73;39650;-75
2021/06/21 18:33:57;;;;;;;7.27;5.67;;;;;;;15.57;100.00;101546.59;1837373;77;86207;-75
2021/06/21 18:39:22;;;;;;;7.47;5.90;;;;;;;15.50;100.00;101553.95;1919493;73;42228;-74
2021/06/21 18:44:47;;;;;;;6.77;6.17;;;;;;;15.54;100.00;101565.37;1877022;75;86678;-75
2021/06/21 18:50:18;;;;;;;8.97;6.43;;;;;;;15.49;100.00;101567.65;1949000;73;39677;-75
2021/06/21 18:55:41;;;;;;;8.43;5.87;;;;;;;15.40;100.00;101563.28;1942946;73;39405;-75
2021/06/21 19:01:05;;;;;;;6.33;5.73;;;;;;;15.35;100.00;101567.58;1837973;77;86406;-75
2021/06/21 19:06:32;;;;;;;10.33;6.10;;;;;;;15.31;100.00;101576.31;1945173;73;39543;-76
2021/06/21 19:11:58;;;;;;;7.17;5.97;;;;;;;15.29;100.00;101584.72;1869207;76;85582;-75
2021/06/21 19:17:23;;;;;;;6.30;5.50;;;;;;;15.30;100.00;101580.23;1946322;73;39622;-76
2021/06/21 19:22:52;;;;;;;6.60;5.90;;;;;;;15.30;100.00;101583.03;1877374;75;86397;-76
2021/06/21 19:28:18;;;;;;;7.03;6.17;;;;;;;15.29;100.00;101586.13;1948238;73;39538;-75
2021/06/21 19:33:45;;;;;;;9.43;5.87;;;;;;;15.20;100.00;101588.75;1904423;74;86447;-75
2021/06/21 19:39:10;;;;;;;8.17;5.63;;;;;;;15.19;100.00;101588.47;1881130;75;85570;-76
2021/06/21 19:44:34;;;;;;;9.47;6.50;;;;;;;15.11;100.00;101604.52;1944215;73;39522;-76
2021/06/21 19:49:59;;;;;;;9.20;6.60;;;;;;;15.13;100.00;101609.27;1867124;75;86427;-76
2021/06/21 19:55:33;;;;;;;8.20;5.90;;;;;;;15.10;100.00;101614.62;2036588;69;39505;-75
2021/06/21 20:00:57;;;;;;;7.67;5.67;;;;;;;15.04;100.00;101626.44;1882391;75;86722;-76
2021/06/21 20:06:23;;;;;;;7.20;5.93;;;;;;;15.03;100.00;101626.16;1935669;72;39647;-76
2021/06/21 20:11:48;;;;;;;6.67;5.90;;;;;;;15.01;100.00;101632.63;1890589;74;86470;-77
2021/06/21 20:17:12;;;;;;;9.90;5.47;;;;;;;15.02;100.00;101637.91;1948993;73;39439;-77
2021/06/21 20:22:36;;;;;;;7.37;5.43;;;;;;;15.04;100.00;101641.83;1943781;73;39398;-73
2021/06/21 20:28:02;;;;;;;6.33;5.53;;;;;;;15.06;100.00;101649.94;1764073;79;85992;-77
2021/06/21 20:33:37;;;;;;;8.33;6.53;;;;;;;15.05;100.00;101663.09;1945902;73;39594;-73
2021/06/21 20:38:52;;;;;;;6.93;5.77;;;;;;;15.03;100.00;101674.56;1877336;75;85840;-74
2021/06/21 20:44:22;;;;;;;9.00;6.93;;;;;;;15.04;100.00;101672.61;1946795;73;40355;-77
2021/06/21 20:49:47;;;;;;;7.83;5.50;;;;;;;15.08;100.00;101676.48;1876678;75;86653;-76
2021/06/21 20:55:14;;;;;;;9.97;6.17;;;;;;;15.04;100.00;101669.81;1925819;73;39478;-76
2021/06/21 21:00:41;;;;;;;8.37;6.17;;;;;;;14.96;100.00;101671.29;1894504;73;39624;-76
2021/06/21 21:06:06;;;;;;;8.37;6.20;;;;;;;14.97;100.00;101674.92;1869114;77;86279;-74
2021/06/21 21:11:30;;;;;;;9.27;5.87;;;;;;;14.98;100.00;101672.38;1895766;73;39515;-75
2021/06/21 21:16:55;;;;;;;9.33;5.97;;;;;;;14.92;100.00;101676.37;1832069;78;86482;-75
2021/06/21 21:22:20;;;;;;;7.00;5.10;;;;;;;14.95;100.00;101675.77;1946947;73;39582;-75
2021/06/21 21:27:44;;;;;;;9.53;6.30;;;;;;;14.98;100.00;101682.16;1881156;75;86427;-75
2021/06/21 21:33:11;;;;;;;8.67;5.60;;;;;;;14.97;100.00;101676.33;1838712;77;86507;-74
2021/06/21 21:38:35;;;;;;;7.87;5.00;;;;;;;14.86;100.00;101679.77;1944274;73;39492;-74
2021/06/21 21:44:00;;;;;;;9.00;4.63;;;;;;;14.82;100.00;101690.44;1824965;76;86341;-76
2021/06/21 21:49:25;;;;;;;7.50;4.03;;;;;;;14.77;100.00;101691.88;1918214;72;39542;-72
2021/06/21 21:57:35;;;;;;;6.97;4.00;;;;;;;14.71;100.00;101688.30;1995194;69;39535;-73
2021/06/21 22:03:04;;;;;;;10.20;3.90;;;;;;;14.64;100.00;101705.13;1951531;71;86460;-71
2021/06/21 22:08:29;;;;;;;9.10;4.30;;;;;;;14.70;100.00;101705.36;1931185;72;39759;-72
2021/06/21 22:13:54;;;;;;;12.03;3.57;;;;;;;14.66;100.00;101711.27;1869346;77;86724;-70
2021/06/21 22:19:20;;;;;;;6.07;3.47;;;;;;;14.59;100.00;101727.80;1948000;73;39614;-71
2021/06/21 22:24:45;;;;;;;7.37;3.97;;;;;;;14.54;100.00;101723.67;1891653;74;86352;-72
2021/06/21 22:30:13;;;;;;;8.53;3.43;;;;;;;14.55;100.00;101721.13;1838515;77;86844;-71
2021/06/21 22:35:39;;;;;;;7.83;3.40;;;;;;;14.50;100.00;101727.34;1926516;72;39455;-74
2021/06/21 22:41:03;;;;;;;8.37;3.23;;;;;;;14.51;100.00;101738.20;1871859;75;86473;-72
2021/06/21 22:46:28;;;;;;;8.17;3.40;;;;;;;14.45;100.00;101742.74;1945664;72;39633;-72
2021/06/21 22:51:52;;;;;;;8.13;3.03;;;;;;;14.50;100.00;101744.11;1893271;74;86467;-72
2021/06/21 22:57:20;;;;;;;6.80;3.23;;;;;;;14.41;100.00;101757.03;1935952;72;39629;-75
2021/06/21 23:02:48;;;;;;;7.20;3.30;;;;;;;14.45;100.00;101767.91;1876701;75;86357;-75
2021/06/21 23:08:13;;;;;;;6.23;3.13;;;;;;;14.43;100.00;101777.96;1948887;73;39585;-75
2021/06/21 23:13:37;;;;;;;10.33;3.40;;;;;;;14.42;100.00;101779.08;1911127;73;39577;-73
2021/06/21 23:19:02;;;;;;;7.53;3.27;;;;;;;14.33;100.00;101786.39;1947448;71;86389;-72
2021/06/21 23:24:33;;;;;;;8.63;3.43;;;;;;;14.34;100.00;101783.84;1944622;73;39588;-74
2021/06/21 23:29:57;;;;;;;5.67;3.07;;;;;;;14.37;100.00;101783.33;1837392;77;86701;-72
2021/06/21 23:35:22;;;;;;;9.80;3.83;;;;;;;14.27;100.00;101779.70;1919933;73;40452;-73
2021/06/21 23:41:06;;;;;;;10.40;4.03;;;;;;;14.21;100.00;101786.43;1884738;74;86273;-72
2021/06/21 23:46:31;;;;;;;11.07;4.13;;;;;;;14.18;100.00;101781.42;1944996;72;47040;-72
2021/06/21 23:51:54;;;;;;;10.23;4.40;;;;;;;14.14;100.00;101785.36;1837209;77;86679;-72
2021/06/21 23:57:18;;;;;;;8.33;4.40;;;;;;;14.11;100.00;101792.92;1921768;73;39627;-73
